createdAt,value
2022-08-05T00:01:35.588Z,99204.34
2022-08-05T00:04:03.702Z,99204.66
2022-08-05T00:06:36.130Z,99211.94
2022-08-05T00:09:03.720Z,99209.19
2022-08-05T00:11:35.045Z,99224.25
2022-08-05T00:14:16.948Z,99230.91
2022-08-05T00:16:53.323Z,99234.56
2022-08-05T00:19:22.313Z,99229.59
2022-08-05T00:21:49.578Z,99232.09
2022-08-05T00:24:19.314Z,99238.25
2022-08-05T00:26:53.151Z,99241.59
2022-08-05T00:29:22.711Z,99241.84
2022-08-05T00:32:10.882Z,99247.75
2022-08-05T00:34:53.692Z,99265.00
2022-08-05T00:37:35.296Z,99264.72
2022-08-05T00:40:03.041Z,99264.69
2022-08-05T00:42:37.885Z,99268.28
2022-08-05T00:45:05.804Z,99269.13
2022-08-05T00:47:57.229Z,99276.38
2022-08-05T00:50:25.396Z,99284.72
2022-08-05T00:52:53.364Z,99291.44
2022-08-05T00:55:22.895Z,99306.75
2022-08-05T00:57:58.710Z,99340.72
2022-08-05T01:00:27.608Z,99378.34
2022-08-05T01:02:55.284Z,99390.59
2022-08-05T01:05:23.262Z,99392.50
2022-08-05T01:08:40.333Z,99377.13
2022-08-05T01:10:40.513Z,99357.31
2022-08-05T01:13:27.368Z,99378.75
2022-08-05T01:16:14.173Z,99388.53
2022-08-05T01:18:56.166Z,99397.72
2022-08-05T01:21:38.095Z,99401.63
2022-08-05T01:24:23.689Z,99420.63
2022-08-05T01:27:17.593Z,99413.06
2022-08-05T01:29:48.681Z,99439.88
2022-08-05T01:32:18.834Z,99437.06
2022-08-05T01:34:46.729Z,99439.56
2022-08-05T01:37:24.387Z,99427.59
2022-08-05T01:39:53.093Z,99425.38
2022-08-05T01:42:23.187Z,99425.09
2022-08-05T01:44:53.908Z,99418.13
2022-08-05T01:47:22.342Z,99422.31
2022-08-05T01:50:02.267Z,99430.13
2022-08-05T01:52:31.344Z,99412.56
2022-08-05T01:55:01.582Z,99427.09
2022-08-05T01:58:13.860Z,99416.78
2022-08-05T02:00:19.629Z,99411.19
2022-08-05T02:02:53.624Z,99402.25
2022-08-05T02:05:23.515Z,99389.44
2022-08-05T02:08:01.416Z,99372.44
2022-08-05T02:10:32.808Z,99360.44
2022-08-05T02:13:02.923Z,99347.66
2022-08-05T02:15:35.152Z,99325.63
2022-08-05T02:18:32.359Z,99306.38
2022-08-05T02:20:58.868Z,99298.88
2022-08-05T02:23:29.003Z,99298.59
2022-08-05T02:26:02.272Z,99291.34
2022-08-05T02:28:34.056Z,99296.34
2022-08-05T02:31:15.488Z,99281.00
2022-08-05T02:33:57.177Z,99271.78
2022-08-05T02:36:27.420Z,99273.47
2022-08-05T02:38:55.985Z,99266.22
2022-08-05T02:41:28.704Z,99254.53
2022-08-05T02:44:12.152Z,99256.19
2022-08-05T02:46:53.188Z,99260.94
2022-08-05T02:49:27.493Z,99245.31
2022-08-05T02:52:05.969Z,99236.97
2022-08-05T02:54:36.170Z,99243.09
2022-08-05T02:57:10.381Z,99247.84
2022-08-05T02:59:54.994Z,99258.19
2022-08-05T03:02:28.116Z,99255.13
2022-08-05T03:04:55.491Z,99254.59
2022-08-05T03:07:48.488Z,99247.94
2022-08-05T03:10:10.439Z,99246.84
2022-08-05T03:12:40.209Z,99262.72
2022-08-05T03:15:09.659Z,99284.72
2022-08-05T03:17:41.705Z,99312.84
2022-08-05T03:20:09.988Z,99321.19
2022-08-05T03:22:37.112Z,99331.53
2022-08-05T03:25:32.683Z,99350.19
2022-08-05T03:27:58.883Z,99357.16
2022-08-05T03:30:33.626Z,99386.97
2022-08-05T03:33:02.665Z,99385.84
2022-08-05T03:35:30.214Z,99417.09
2022-08-05T03:38:00.773Z,99415.69
2022-08-05T03:40:32.263Z,99419.84
2022-08-05T03:43:01.341Z,99399.78
2022-08-05T03:45:57.110Z,99406.22
2022-08-05T03:48:29.185Z,99390.25
2022-08-05T03:52:49.193Z,99392.75
2022-08-05T03:55:51.842Z,99390.81
2022-08-05T03:56:49.911Z,99409.03
2022-08-05T03:59:20.254Z,99401.47
2022-08-05T04:01:49.702Z,99409.84
2022-08-05T04:04:21.141Z,99389.59
2022-08-05T04:06:51.287Z,99395.44
2022-08-05T04:09:25.889Z,99435.25
2022-08-05T04:11:56.828Z,99435.47
2022-08-05T04:14:29.733Z,99430.13
2022-08-05T04:16:58.191Z,99446.25
2022-08-05T04:19:25.095Z,99518.19
2022-08-05T04:22:09.258Z,99522.22
2022-08-05T04:24:44.006Z,99549.56
2022-08-05T04:27:12.313Z,99546.31
2022-08-05T04:29:39.156Z,99550.97
2022-08-05T04:32:06.482Z,99535.22
2022-08-05T04:34:36.650Z,99537.59
2022-08-05T04:37:09.863Z,99527.94
2022-08-05T04:39:37.867Z,99501.59
2022-08-05T04:42:06.281Z,99489.63
2022-08-05T04:44:33.391Z,99494.56
2022-08-05T04:47:09.757Z,99514.31
2022-08-05T04:50:01.413Z,99497.78
2022-08-05T04:52:27.398Z,99474.75
2022-08-05T04:54:57.082Z,99461.72
2022-08-05T04:57:29.082Z,99473.75
2022-08-05T04:59:56.709Z,99463.81
2022-08-05T05:02:36.842Z,99455.09
2022-08-05T05:05:25.925Z,99462.13
2022-08-05T05:07:55.218Z,99472.72
2022-08-05T05:10:23.742Z,99498.94
2022-08-05T05:12:50.737Z,99489.28
2022-08-05T05:15:17.622Z,99492.88
2022-08-05T05:18:04.935Z,99482.63
2022-08-05T05:20:32.444Z,99493.97
2022-08-05T05:23:04.192Z,99494.66
2022-08-05T05:25:40.906Z,99498.59
2022-08-05T05:28:08.863Z,99502.78
2022-08-05T05:30:36.344Z,99487.22
2022-08-05T05:33:16.624Z,99496.63
2022-08-05T05:35:45.310Z,99503.28
2022-08-05T05:38:13.451Z,99513.19
2022-08-05T05:40:49.511Z,99538.47
2022-08-05T05:43:21.861Z,99556.22
2022-08-05T05:45:55.491Z,99565.72
2022-08-05T05:48:27.696Z,99555.28
2022-08-05T05:50:55.427Z,99544.56
2022-08-05T05:53:22.961Z,99540.75
2022-08-05T05:55:52.161Z,99545.34
2022-08-05T05:58:31.389Z,99550.19
2022-08-05T06:01:02.405Z,99562.69
2022-08-05T06:04:01.226Z,99571.22
2022-08-05T06:06:27.812Z,99577.28
2022-08-05T06:08:57.614Z,99586.38
2022-08-05T06:11:24.441Z,99573.31
2022-08-05T06:13:54.113Z,99548.72
2022-08-05T06:16:31.665Z,99546.03
2022-08-05T06:19:01.246Z,99525.19
2022-08-05T06:21:36.011Z,99519.53
2022-08-05T06:24:11.944Z,99525.22
2022-08-05T06:26:57.849Z,99528.31
2022-08-05T06:29:48.153Z,99523.56
2022-08-05T06:32:21.066Z,99538.03
2022-08-05T06:34:56.054Z,99536.88
2022-08-05T06:37:57.450Z,99534.91
2022-08-05T06:40:20.540Z,99535.25
2022-08-05T06:42:52.452Z,99541.19
2022-08-05T06:45:20.658Z,99537.44
2022-08-05T06:48:36.496Z,99530.19
2022-08-05T06:50:35.403Z,99540.75
2022-08-05T06:53:04.047Z,99522.53
2022-08-05T06:55:42.076Z,99528.50
2022-08-05T06:58:20.155Z,99533.19
2022-08-05T07:01:00.840Z,99529.00
2022-08-05T07:03:32.970Z,99523.50
2022-08-05T07:06:00.899Z,99504.78
2022-08-05T07:08:33.167Z,99498.53
2022-08-05T07:11:00.275Z,99511.75
2022-08-05T07:13:37.215Z,99517.19
2022-08-05T07:17:57.266Z,99515.63
2022-08-05T07:19:03.110Z,99526.09
2022-08-05T07:22:00.571Z,99541.97
2022-08-05T07:24:17.657Z,99529.03
2022-08-05T07:26:45.300Z,99529.44
2022-08-05T07:29:13.217Z,99520.28
2022-08-05T07:31:54.895Z,99524.47
2022-08-05T07:34:26.231Z,99521.16
2022-08-05T07:36:55.528Z,99527.00
2022-08-05T07:39:37.012Z,99542.16
2022-08-05T07:42:15.214Z,99566.34
2022-08-05T07:44:43.103Z,99575.78
2022-08-05T07:47:14.047Z,99578.03
2022-08-05T07:49:43.513Z,99584.00
2022-08-05T07:52:21.090Z,99581.13
2022-08-05T07:54:50.817Z,99589.00
2022-08-05T07:57:56.322Z,99597.22
2022-08-05T08:00:07.400Z,99612.09
2022-08-05T08:03:14.569Z,99605.41
2022-08-05T08:05:28.006Z,99616.06
2022-08-05T08:08:00.038Z,99614.72
2022-08-05T08:10:27.800Z,99601.66
2022-08-05T08:12:54.674Z,99613.09
2022-08-05T08:16:33.752Z,99610.88
2022-08-05T08:18:14.145Z,99601.09
2022-08-05T08:20:45.327Z,99608.63
2022-08-05T08:24:02.054Z,99598.59
2022-08-05T08:26:15.075Z,99601.38
2022-08-05T08:28:59.603Z,99618.69
2022-08-05T08:31:28.706Z,99632.94
2022-08-05T08:33:59.813Z,99634.59
2022-08-05T08:36:38.331Z,99622.59
2022-08-05T08:39:15.719Z,99607.53
2022-08-05T08:41:52.657Z,99599.19
2022-08-05T08:45:20.552Z,99613.69
2022-08-05T08:47:46.955Z,99621.78
2022-08-05T08:50:22.951Z,99618.13
2022-08-05T08:52:53.066Z,99619.53
2022-08-05T08:55:31.893Z,99621.50
2022-08-05T08:58:08.795Z,99618.69
2022-08-05T09:00:36.049Z,99625.38
2022-08-05T09:03:05.440Z,99624.00
2022-08-05T09:05:38.707Z,99619.81
2022-08-05T09:08:22.180Z,99615.31
2022-08-05T09:10:54.309Z,99630.16
2022-08-05T09:13:21.383Z,99619.00
2022-08-05T09:15:51.102Z,99613.91
2022-08-05T09:18:18.230Z,99625.00
2022-08-05T09:20:45.207Z,99626.66
2022-08-05T09:23:19.933Z,99623.41
2022-08-05T09:25:59.905Z,99624.81
2022-08-05T09:28:32.629Z,99614.22
2022-08-05T09:31:43.646Z,99592.13
2022-08-05T09:34:09.912Z,99594.19
2022-08-05T09:36:38.867Z,99599.81
2022-08-05T09:39:22.208Z,99601.41
2022-08-05T09:41:58.573Z,99597.75
2022-08-05T09:44:35.480Z,99593.75
2022-08-05T09:47:15.780Z,99598.81
2022-08-05T09:50:00.381Z,99606.03
2022-08-05T09:52:29.754Z,99604.75
2022-08-05T09:55:55.043Z,99602.03
2022-08-05T09:57:48.318Z,99589.06
2022-08-05T10:00:16.777Z,99589.16
2022-08-05T10:02:43.652Z,99601.09
2022-08-05T10:05:15.447Z,99603.78
2022-08-05T10:08:10.581Z,99594.13
2022-08-05T10:10:39.171Z,99576.78
2022-08-05T10:13:09.865Z,99577.06
2022-08-05T10:15:38.528Z,99589.06
2022-08-05T10:18:18.613Z,99580.47
2022-08-05T10:20:48.582Z,99571.66
2022-08-05T10:23:21.797Z,99579.41
2022-08-05T10:26:03.844Z,99579.44
2022-08-05T10:28:34.244Z,99589.66
2022-08-05T10:32:54.589Z,99593.63
2022-08-05T10:33:52.245Z,99591.94
2022-08-05T10:36:23.674Z,99601.31
2022-08-05T10:38:58.988Z,99609.59
2022-08-05T10:41:46.981Z,99608.59
2022-08-05T10:44:16.847Z,99604.06
2022-08-05T10:46:54.417Z,99610.88
2022-08-05T10:49:27.024Z,99609.88
2022-08-05T10:52:02.487Z,99605.19
2022-08-05T10:54:47.150Z,99608.41
2022-08-05T10:57:31.688Z,99592.59
2022-08-05T11:00:12.084Z,99598.44
2022-08-05T11:03:24.317Z,99602.03
2022-08-05T11:06:15.344Z,99609.13
2022-08-05T11:09:03.068Z,99616.47
2022-08-05T11:11:44.526Z,99631.25
2022-08-05T11:14:56.246Z,99625.03
2022-08-05T11:17:59.347Z,99622.00
2022-08-05T11:20:34.490Z,99632.50
2022-08-05T11:23:21.853Z,99631.56
2022-08-05T11:26:28.151Z,99629.44
2022-08-05T11:29:06.775Z,99633.59
2022-08-05T11:31:54.356Z,99632.25
2022-08-05T11:34:35.382Z,99639.41
2022-08-05T11:37:02.334Z,99638.16
2022-08-05T11:39:49.910Z,99641.22
2022-08-05T11:42:23.343Z,99642.31
2022-08-05T11:45:00.715Z,99642.69
2022-08-05T11:47:49.253Z,99634.91
2022-08-05T11:50:14.632Z,99640.81
2022-08-05T11:52:41.698Z,99643.47
2022-08-05T11:55:12.532Z,99654.19
2022-08-05T11:58:11.052Z,99657.81
2022-08-05T12:00:31.865Z,99670.03
2022-08-05T12:03:14.645Z,99660.63
2022-08-05T12:05:43.648Z,99665.47
2022-08-05T12:08:11.721Z,99657.34
2022-08-05T12:10:46.601Z,99662.09
2022-08-05T12:13:27.624Z,99672.00
2022-08-05T12:16:14.379Z,99675.69
2022-08-05T12:18:49.465Z,99661.91
2022-08-05T12:21:23.623Z,99661.84
2022-08-05T12:24:07.659Z,99664.09
2022-08-05T12:26:38.692Z,99646.50
2022-08-05T12:29:09.410Z,99662.03
2022-08-05T12:31:42.360Z,99654.44
2022-08-05T12:34:20.494Z,99659.72
2022-08-05T12:36:51.057Z,99658.69
2022-08-05T12:39:19.230Z,99656.56
2022-08-05T12:41:46.535Z,99661.28
2022-08-05T12:44:21.673Z,99658.25
2022-08-05T12:47:00.641Z,99664.22
2022-08-05T12:50:02.944Z,99667.16
2022-08-05T12:52:30.409Z,99680.59
2022-08-05T12:55:15.612Z,99680.84
2022-08-05T12:58:49.783Z,99686.41
2022-08-05T13:02:02.218Z,99674.03
2022-08-05T13:03:16.617Z,99676.25
2022-08-05T13:05:46.591Z,99678.13
2022-08-05T13:08:17.899Z,99687.81
2022-08-05T13:10:50.256Z,99692.31
2022-08-05T13:14:05.171Z,99680.47
2022-08-05T13:16:12.318Z,99697.78
2022-08-05T13:18:52.431Z,99696.94
2022-08-05T13:21:22.181Z,99698.06
2022-08-05T13:23:54.877Z,99696.03
2022-08-05T13:26:25.509Z,99687.72
2022-08-05T13:28:57.421Z,99691.59
2022-08-05T13:32:02.943Z,99704.00
2022-08-05T13:34:22.502Z,99705.06
2022-08-05T13:36:52.834Z,99716.81
2022-08-05T13:39:24.419Z,99712.47
2022-08-05T13:42:06.814Z,99708.22
2022-08-05T13:44:34.720Z,99720.75
2022-08-05T13:47:08.587Z,99717.88
2022-08-05T13:49:36.163Z,99721.84
2022-08-05T13:52:13.236Z,99718.19
2022-08-05T13:54:40.471Z,99733.97
2022-08-05T13:57:08.191Z,99742.66
2022-08-05T13:59:37.515Z,99742.00
2022-08-05T14:02:26.548Z,99756.72
2022-08-05T14:04:53.633Z,99748.69
2022-08-05T14:08:00.497Z,99737.66
2022-08-05T14:10:18.697Z,99742.13
2022-08-05T14:12:55.120Z,99750.94
2022-08-05T14:16:06.347Z,99747.22
2022-08-05T14:18:14.867Z,99746.72
2022-08-05T14:20:47.239Z,99744.94
2022-08-05T14:23:18.920Z,99754.88
2022-08-05T14:25:53.881Z,99757.25
2022-08-05T14:28:27.040Z,99757.06
2022-08-05T14:30:58.027Z,99753.91
2022-08-05T14:33:25.035Z,99740.16
2022-08-05T14:35:54.012Z,99728.22
2022-08-05T14:38:32.146Z,99727.63
2022-08-05T14:41:05.635Z,99723.31
2022-08-05T14:43:59.434Z,99724.72
2022-08-05T14:46:29.023Z,99736.13
2022-08-05T14:49:06.467Z,99722.34
2022-08-05T14:51:34.088Z,99731.88
2022-08-05T14:54:28.717Z,99732.16
2022-08-05T14:56:48.613Z,99715.78
2022-08-05T14:59:15.441Z,99727.63
2022-08-05T15:01:48.302Z,99735.25
2022-08-05T15:04:16.867Z,99738.28
2022-08-05T15:06:49.445Z,99747.38
2022-08-05T15:09:51.201Z,99740.16
2022-08-05T15:12:08.923Z,99740.00
2022-08-05T15:14:48.472Z,99743.34
2022-08-05T15:17:47.636Z,99737.59
2022-08-05T15:20:05.195Z,99747.53
2022-08-05T15:22:32.732Z,99737.41
2022-08-05T15:24:59.556Z,99739.00
2022-08-05T15:27:32.207Z,99752.06
2022-08-05T15:30:03.467Z,99759.16
2022-08-05T15:32:30.287Z,99763.31
2022-08-05T15:34:58.459Z,99761.25
2022-08-05T15:38:32.815Z,99753.97
2022-08-05T15:40:58.322Z,99752.22
2022-08-05T15:43:12.767Z,99760.63
2022-08-05T15:45:46.090Z,99780.28
2022-08-05T15:48:14.042Z,99796.00
2022-08-05T15:50:41.532Z,99792.94
2022-08-05T15:53:12.462Z,99800.75
2022-08-05T15:56:04.159Z,99800.44
2022-08-05T15:58:27.442Z,99801.69
2022-08-05T16:01:11.833Z,99810.72
2022-08-05T16:03:41.333Z,99815.75
2022-08-05T16:06:08.517Z,99818.91
2022-08-05T16:08:38.555Z,99810.25
2022-08-05T16:11:05.452Z,99821.31
2022-08-05T16:13:34.831Z,99834.44
2022-08-05T16:16:05.249Z,99838.41
2022-08-05T16:18:32.132Z,99844.44
2022-08-05T16:20:59.150Z,99836.88
2022-08-05T16:23:32.834Z,99840.22
2022-08-05T16:26:17.760Z,99847.84
2022-08-05T16:28:44.869Z,99842.72
2022-08-05T16:31:11.716Z,99847.16
2022-08-05T16:33:41.686Z,99857.47
2022-08-05T16:36:09.033Z,99863.50
2022-08-05T16:38:35.900Z,99847.91
2022-08-05T16:42:12.373Z,99891.56
2022-08-05T16:43:49.750Z,99873.66
2022-08-05T16:46:24.511Z,99872.31
2022-08-05T16:48:51.833Z,99880.63
2022-08-05T16:51:19.565Z,99887.44
2022-08-05T16:54:04.897Z,99895.66
2022-08-05T16:56:35.216Z,99900.34
2022-08-05T16:59:08.055Z,99899.53
2022-08-05T17:01:53.863Z,99888.31
2022-08-05T17:04:27.199Z,99893.13
2022-08-05T17:07:00.434Z,99909.22
2022-08-05T17:09:31.054Z,99902.44
2022-08-05T17:12:17.567Z,99908.50
2022-08-05T17:14:49.702Z,99912.25
2022-08-05T17:17:16.629Z,99923.41
2022-08-05T17:19:46.604Z,99921.59
2022-08-05T17:22:25.142Z,99912.22
2022-08-05T17:24:58.160Z,99921.88
2022-08-05T17:27:26.125Z,99926.34
2022-08-05T17:29:59.771Z,99929.00
2022-08-05T17:32:29.391Z,99918.91
2022-08-05T17:34:58.112Z,99934.56
2022-08-05T17:37:40.648Z,99930.44
2022-08-05T17:40:15.833Z,99932.25
2022-08-05T17:42:51.088Z,99932.38
2022-08-05T17:45:20.543Z,99942.28
2022-08-05T17:47:53.516Z,99932.75
2022-08-05T17:50:28.021Z,99952.50
2022-08-05T17:52:59.635Z,99942.88
2022-08-05T17:55:34.578Z,99949.00
2022-08-05T17:58:06.848Z,99952.59
2022-08-05T18:00:47.544Z,99957.56
2022-08-05T18:03:33.416Z,99949.34
2022-08-05T18:06:03.852Z,99958.75
2022-08-05T18:08:32.006Z,99965.88
2022-08-05T18:10:59.721Z,99965.25
2022-08-05T18:13:26.610Z,99963.59
2022-08-05T18:16:04.418Z,99976.00
2022-08-05T18:18:31.561Z,99976.25
2022-08-05T18:21:13.052Z,99980.44
2022-08-05T18:23:49.134Z,99978.31
2022-08-05T18:26:21.886Z,99977.56
2022-08-05T18:28:54.755Z,99983.84
2022-08-05T18:31:22.264Z,99989.03
2022-08-05T18:33:51.534Z,99996.00
2022-08-05T18:36:19.184Z,99999.00
2022-08-05T18:38:46.338Z,100002.75
2022-08-05T18:41:56.092Z,100006.16
2022-08-05T18:44:05.460Z,100015.66
2022-08-05T18:46:33.465Z,100015.06
2022-08-05T18:49:00.452Z,100010.22
2022-08-05T18:52:05.877Z,100011.19
2022-08-05T18:54:14.193Z,100020.72
2022-08-05T18:56:41.097Z,100028.69
2022-08-05T18:59:50.619Z,100035.91
2022-08-05T19:01:56.785Z,100027.31
2022-08-05T19:04:25.303Z,100027.94
2022-08-05T19:06:53.529Z,100038.97
2022-08-05T19:09:21.286Z,100036.28
2022-08-05T19:12:00.657Z,100045.19
2022-08-05T19:14:59.158Z,100051.19
2022-08-05T19:17:16.223Z,100057.41
2022-08-05T19:19:46.925Z,100059.19
2022-08-05T19:22:17.024Z,100073.47
2022-08-05T19:24:54.444Z,100068.22
2022-08-05T19:27:27.699Z,100073.97
2022-08-05T19:29:54.894Z,100084.91
2022-08-05T19:32:26.217Z,100079.69
2022-08-05T19:34:56.245Z,100099.69
2022-08-05T19:37:29.747Z,100111.19
2022-08-05T19:40:12.292Z,100106.34
2022-08-05T19:42:39.227Z,100114.63
2022-08-05T19:45:06.624Z,100123.63
2022-08-05T19:47:34.404Z,100130.06
2022-08-05T19:50:04.666Z,100126.97
2022-08-05T19:52:34.504Z,100128.72
2022-08-05T19:55:06.891Z,100141.31
2022-08-05T19:57:47.551Z,100126.94
2022-08-05T20:00:22.704Z,100134.28
2022-08-05T20:02:50.566Z,100138.53
2022-08-05T20:05:24.402Z,100135.34
2022-08-05T20:07:56.281Z,100146.66
2022-08-05T20:10:25.934Z,100141.78
2022-08-05T20:12:52.798Z,100143.47
2022-08-05T20:15:48.575Z,100143.31
2022-08-05T20:18:10.819Z,100147.66
2022-08-05T20:20:56.711Z,100150.69
2022-08-05T20:23:38.814Z,100149.03
2022-08-05T20:26:16.625Z,100147.81
2022-08-05T20:28:47.988Z,100146.34
2022-08-05T20:31:16.617Z,100141.50
2022-08-05T20:33:44.222Z,100148.75
2022-08-05T20:36:12.110Z,100162.78
2022-08-05T20:38:53.384Z,100168.97
2022-08-05T20:41:26.816Z,100172.59
2022-08-05T20:43:58.812Z,100182.81
2022-08-05T20:46:29.690Z,100180.50
2022-08-05T20:48:56.701Z,100188.81
2022-08-05T20:51:23.574Z,100181.38
2022-08-05T20:53:56.600Z,100182.91
2022-08-05T20:56:29.699Z,100193.13
2022-08-05T20:59:04.211Z,100193.56
2022-08-05T21:01:42.980Z,100185.31
2022-08-05T21:04:10.399Z,100189.56
2022-08-05T21:06:37.945Z,100189.78
2022-08-05T21:09:14.361Z,100187.03
2022-08-05T21:12:06.969Z,100176.00
2022-08-05T21:14:34.746Z,100191.28
2022-08-05T21:17:06.160Z,100190.63
2022-08-05T21:19:46.954Z,100207.59
2022-08-05T21:22:18.287Z,100200.81
2022-08-05T21:24:48.791Z,100205.06
2022-08-05T21:27:17.048Z,100204.84
2022-08-05T21:29:48.487Z,100200.59
2022-08-05T21:32:20.002Z,100201.88
2022-08-05T21:35:06.931Z,100201.22
2022-08-05T21:37:33.984Z,100203.34
2022-08-05T21:40:04.124Z,100207.59
2022-08-05T21:42:44.922Z,100199.09
2022-08-05T21:45:12.507Z,100198.66
2022-08-05T21:47:56.077Z,100207.97
2022-08-05T21:50:27.188Z,100204.34
2022-08-05T21:52:58.826Z,100217.09
2022-08-05T21:56:01.799Z,100220.03
2022-08-05T21:58:12.869Z,100213.88
2022-08-05T22:00:40.174Z,100223.59
2022-08-05T22:03:07.583Z,100217.88
2022-08-05T22:05:48.708Z,100215.09
2022-08-05T22:08:22.193Z,100223.53
2022-08-05T22:10:51.485Z,100225.47
2022-08-05T22:14:06.074Z,100228.16
2022-08-05T22:16:26.067Z,100234.72
2022-08-05T22:18:53.999Z,100238.94
2022-08-05T22:21:25.802Z,100248.66
2022-08-05T22:24:02.764Z,100255.22
2022-08-05T22:26:36.068Z,100261.34
2022-08-05T22:29:04.571Z,100258.34
2022-08-05T22:31:44.948Z,100266.38
2022-08-05T22:34:12.845Z,100263.59
2022-08-05T22:36:48.142Z,100269.69
2022-08-05T22:39:15.184Z,100259.31
2022-08-05T22:42:10.827Z,100257.34
2022-08-05T22:44:29.507Z,100251.38
2022-08-05T22:46:56.372Z,100254.06
2022-08-05T22:50:20.445Z,100259.78
2022-08-05T22:52:13.846Z,100263.34
2022-08-05T22:54:48.844Z,100269.66
2022-08-05T22:57:15.933Z,100266.91
2022-08-05T22:59:51.982Z,100269.03
2022-08-05T23:02:29.551Z,100263.91
2022-08-05T23:05:01.820Z,100271.97
2022-08-05T23:07:32.345Z,100284.03
2022-08-05T23:10:02.234Z,100278.91
2022-08-05T23:12:32.439Z,100286.69
2022-08-05T23:15:01.286Z,100289.00
2022-08-05T23:17:32.724Z,100300.19
2022-08-05T23:20:05.433Z,100289.63
2022-08-05T23:22:32.376Z,100290.97
2022-08-05T23:25:00.095Z,100301.22
2022-08-05T23:27:31.281Z,100302.09
2022-08-05T23:30:10.787Z,100311.53
2022-08-05T23:32:37.815Z,100311.47
2022-08-05T23:35:12.449Z,100311.03
2022-08-05T23:37:39.293Z,100317.31
2022-08-05T23:40:07.816Z,100319.59
2022-08-05T23:42:36.843Z,100316.88
2022-08-05T23:45:04.961Z,100326.63
2022-08-05T23:47:47.869Z,100327.78
2022-08-05T23:50:15.275Z,100336.91
2022-08-05T23:52:49.544Z,100330.72
2022-08-05T23:55:17.605Z,100329.59
2022-08-05T23:57:44.596Z,100328.00
